Witter, Arkansas
Current Conditions -  °F | °C
As of 11:53 PM on Wednesday 22 Oct 2014 (Local Time) from KFYV Reporting Station
Clear Clear  
Wind Chill: 49°   Ceiling: Unl
Heat Index: 49°   Visibility: 9mi
Dew Point: 48°   Wind: 0mph
Humidity: 97%   Direction: NA
Pressure: 30.17"   Gusts: NA
Location:  35.94°N, 93.68°W
Report Text: KFYV 230453Z 00000KT 9SM CLR 09/09 A3017 RMK AO2 SLP212 T00940089
Loading
Personal Weather Stations






























Interactive Weather Map
Tropical Storm Tracking
New forecast layout! Learn more

10-Day Weather Forecast

Advertisements
Track Severe Weather on mobile